createdAt,value
2023-03-29T00:02:04.303Z,70.62
2023-03-29T00:04:31.390Z,70.08
2023-03-29T00:07:03.984Z,69.62
2023-03-29T00:09:33.000Z,70.00
2023-03-29T00:12:01.065Z,69.37
2023-03-29T00:14:29.196Z,69.35
2023-03-29T00:16:55.980Z,69.05
2023-03-29T00:19:22.758Z,70.37
2023-03-29T00:21:49.547Z,70.89
2023-03-29T00:24:16.235Z,70.37
2023-03-29T00:26:42.812Z,69.48
2023-03-29T00:29:09.505Z,68.90
2023-03-29T00:31:36.331Z,67.81
2023-03-29T00:34:03.145Z,68.90
2023-03-29T00:36:29.843Z,68.38
2023-03-29T00:38:56.773Z,68.97
2023-03-29T00:41:24.274Z,68.43
2023-03-29T00:43:52.592Z,67.62
2023-03-29T00:46:19.243Z,68.21
2023-03-29T00:48:46.611Z,67.29
2023-03-29T00:51:16.885Z,67.76
2023-03-29T00:53:49.460Z,66.56
2023-03-29T00:56:24.642Z,67.99
2023-03-29T00:59:04.835Z,70.36
2023-03-29T01:01:55.089Z,71.90
2023-03-29T01:04:32.464Z,72.92
2023-03-29T01:07:25.922Z,72.63
2023-03-29T01:10:09.769Z,73.23
2023-03-29T01:12:41.837Z,72.73
2023-03-29T01:15:14.551Z,72.88
2023-03-29T01:17:44.402Z,73.13
2023-03-29T01:20:20.170Z,73.50
2023-03-29T01:22:55.601Z,73.33
2023-03-29T01:25:45.543Z,73.03
2023-03-29T01:28:17.382Z,73.77
2023-03-29T01:31:09.204Z,73.79
2023-03-29T01:33:40.340Z,73.57
2023-03-29T01:36:16.459Z,74.15
2023-03-29T01:38:49.598Z,72.44
2023-03-29T01:41:16.854Z,71.67
2023-03-29T01:44:05.968Z,72.95
2023-03-29T01:46:48.571Z,72.98
2023-03-29T01:49:29.835Z,72.81
2023-03-29T01:52:08.028Z,73.61
2023-03-29T01:54:43.368Z,73.56
2023-03-29T01:57:11.787Z,73.35
2023-03-29T01:59:43.146Z,73.03
2023-03-29T02:02:14.770Z,72.38
2023-03-29T02:04:51.076Z,73.39
2023-03-29T02:07:21.167Z,72.83
2023-03-29T02:09:49.443Z,72.57
2023-03-29T02:12:16.941Z,72.49
2023-03-29T02:14:43.933Z,73.34
2023-03-29T02:17:24.421Z,72.73
2023-03-29T02:19:58.010Z,72.61
2023-03-29T02:22:30.447Z,72.37
2023-03-29T02:25:00.358Z,72.63
2023-03-29T02:27:29.492Z,72.50
2023-03-29T02:29:57.621Z,72.59
2023-03-29T02:32:50.129Z,72.20
2023-03-29T02:35:51.031Z,73.24
2023-03-29T02:38:17.808Z,74.14
2023-03-29T02:40:46.728Z,74.18
2023-03-29T02:43:15.896Z,74.46
2023-03-29T02:45:44.573Z,74.34
2023-03-29T02:48:17.300Z,73.98
2023-03-29T02:50:47.506Z,74.67
2023-03-29T02:53:22.941Z,73.87
2023-03-29T02:55:52.777Z,74.25
2023-03-29T02:58:20.599Z,73.97
2023-03-29T03:00:48.968Z,74.10
2023-03-29T03:03:15.941Z,74.06
2023-03-29T03:05:45.175Z,74.34
2023-03-29T03:08:11.754Z,74.82
2023-03-29T03:10:39.123Z,75.14
2023-03-29T03:13:05.967Z,75.54
2023-03-29T03:15:35.837Z,72.97
2023-03-29T03:18:03.679Z,72.96
2023-03-29T03:20:31.227Z,72.50
2023-03-29T03:22:58.410Z,72.41
2023-03-29T03:25:25.073Z,72.52
2023-03-29T03:27:51.868Z,72.42
2023-03-29T03:30:21.871Z,72.41
2023-03-29T03:33:07.874Z,72.39
2023-03-29T03:35:56.980Z,73.49
2023-03-29T03:38:24.118Z,73.37
2023-03-29T03:40:57.200Z,71.86
2023-03-29T03:43:24.642Z,72.06
2023-03-29T03:45:51.911Z,72.16
2023-03-29T03:48:22.998Z,73.56
2023-03-29T03:50:58.272Z,72.02
2023-03-29T03:53:29.624Z,72.48
2023-03-29T03:56:16.241Z,72.97
2023-03-29T03:59:12.188Z,72.29
2023-03-29T04:01:58.494Z,72.02
2023-03-29T04:04:25.933Z,72.84
2023-03-29T04:07:05.847Z,71.98
2023-03-29T04:09:58.339Z,71.62
2023-03-29T04:12:34.115Z,71.71
2023-03-29T04:15:01.272Z,71.97
2023-03-29T04:17:29.172Z,71.74
2023-03-29T04:19:58.757Z,73.25
2023-03-29T04:22:28.594Z,72.67
2023-03-29T04:24:55.299Z,71.79
2023-03-29T04:27:40.715Z,71.87
2023-03-29T04:30:22.070Z,71.58
2023-03-29T04:33:08.823Z,70.14
2023-03-29T04:35:36.971Z,70.60
2023-03-29T04:38:04.507Z,70.02
2023-03-29T04:40:31.425Z,70.05
2023-03-29T04:43:08.714Z,68.72
2023-03-29T04:45:39.465Z,68.98
2023-03-29T04:48:14.006Z,68.39
2023-03-29T04:50:46.773Z,68.53
2023-03-29T04:53:15.299Z,69.07
2023-03-29T04:55:43.601Z,67.86
2023-03-29T04:58:14.412Z,67.80
2023-03-29T05:00:43.053Z,68.23
2023-03-29T05:03:28.619Z,67.66
2023-03-29T05:06:07.091Z,67.21
2023-03-29T05:08:39.947Z,68.36
2023-03-29T05:11:29.283Z,68.67
2023-03-29T05:13:58.447Z,70.19
2023-03-29T05:16:30.036Z,69.72
2023-03-29T05:18:58.764Z,70.65
2023-03-29T05:21:28.530Z,70.98
2023-03-29T05:23:58.028Z,69.96
2023-03-29T05:26:43.767Z,67.13
2023-03-29T05:29:10.583Z,70.28
2023-03-29T05:31:37.923Z,70.32
2023-03-29T05:34:05.436Z,67.92
2023-03-29T05:36:34.478Z,67.75
2023-03-29T05:39:01.887Z,64.59
2023-03-29T05:41:28.688Z,66.08
2023-03-29T05:44:01.549Z,63.61
2023-03-29T05:46:29.197Z,63.62
2023-03-29T05:48:58.149Z,63.14
2023-03-29T05:51:41.997Z,62.40
2023-03-29T05:54:08.895Z,62.68
2023-03-29T05:56:35.493Z,63.35
2023-03-29T05:59:02.166Z,63.35
2023-03-29T06:01:29.314Z,63.61
2023-03-29T06:04:07.513Z,64.80
2023-03-29T06:06:43.257Z,64.70
2023-03-29T06:09:11.043Z,64.64
2023-03-29T06:11:52.909Z,64.88
2023-03-29T06:14:37.316Z,64.44
2023-03-29T06:17:17.564Z,64.85
2023-03-29T06:19:45.167Z,63.92
2023-03-29T06:22:14.334Z,63.71
2023-03-29T06:24:41.507Z,63.28
2023-03-29T06:27:15.548Z,63.38
2023-03-29T06:29:43.203Z,62.90
2023-03-29T06:32:11.086Z,63.07
2023-03-29T06:34:55.877Z,62.32
2023-03-29T06:37:50.881Z,61.47
2023-03-29T06:40:31.867Z,60.92
2023-03-29T06:42:59.379Z,60.96
2023-03-29T06:45:46.222Z,60.87
2023-03-29T06:48:26.902Z,61.11
2023-03-29T06:50:54.557Z,60.49
2023-03-29T06:53:24.744Z,60.43
2023-03-29T06:55:56.366Z,60.52
2023-03-29T06:58:39.558Z,60.57
2023-03-29T07:01:18.716Z,60.59
2023-03-29T07:03:50.315Z,60.80
2023-03-29T07:06:22.592Z,60.81
2023-03-29T07:08:52.536Z,61.15
2023-03-29T07:11:40.527Z,61.00
2023-03-29T07:14:18.909Z,61.36
2023-03-29T07:16:47.178Z,60.94
2023-03-29T07:19:19.731Z,60.89
2023-03-29T07:21:55.152Z,61.11
2023-03-29T07:24:30.424Z,61.21
2023-03-29T07:27:04.222Z,58.92
2023-03-29T07:29:33.402Z,59.48
2023-03-29T07:32:00.231Z,58.93
2023-03-29T07:34:52.922Z,58.43
2023-03-29T07:37:25.437Z,58.57
2023-03-29T07:39:53.447Z,58.86
2023-03-29T07:42:29.321Z,58.35
2023-03-29T07:44:56.929Z,58.46
2023-03-29T07:47:23.606Z,58.36
2023-03-29T07:49:50.427Z,58.98
2023-03-29T07:52:18.182Z,59.33
2023-03-29T07:54:45.291Z,57.93
2023-03-29T07:57:25.495Z,59.61
2023-03-29T07:59:54.744Z,60.18
2023-03-29T08:02:27.262Z,61.47
2023-03-29T08:04:57.354Z,62.99
2023-03-29T08:07:30.108Z,63.29
2023-03-29T08:10:19.796Z,63.44
2023-03-29T08:13:12.507Z,63.35
2023-03-29T08:15:50.330Z,63.66
2023-03-29T08:18:30.065Z,66.57
2023-03-29T08:20:58.089Z,65.94
2023-03-29T08:23:24.918Z,66.49
2023-03-29T08:26:08.628Z,65.80
2023-03-29T08:28:35.450Z,66.49
2023-03-29T08:31:02.400Z,66.36
2023-03-29T08:33:29.111Z,65.67
2023-03-29T08:36:11.781Z,65.95
2023-03-29T08:38:38.793Z,67.19
2023-03-29T08:41:25.537Z,66.24
2023-03-29T08:44:07.097Z,66.21
2023-03-29T08:47:41.952Z,67.69
2023-03-29T08:50:13.934Z,66.45
2023-03-29T08:53:08.274Z,64.80
2023-03-29T08:55:57.795Z,66.17
2023-03-29T08:58:46.323Z,65.38
2023-03-29T09:01:13.326Z,64.53
2023-03-29T09:04:03.539Z,64.42
2023-03-29T09:06:44.859Z,65.53
2023-03-29T09:09:23.208Z,64.22
2023-03-29T09:12:16.175Z,64.80
2023-03-29T09:15:15.379Z,64.19
2023-03-29T09:18:23.180Z,64.09
2023-03-29T09:21:00.216Z,63.74
2023-03-29T09:23:48.607Z,64.25
2023-03-29T09:26:49.136Z,63.54
2023-03-29T09:30:04.651Z,64.66
2023-03-29T09:32:53.784Z,63.15
2023-03-29T09:35:37.432Z,63.68
2023-03-29T09:38:10.913Z,63.37
2023-03-29T09:40:41.893Z,63.05
2023-03-29T09:43:18.379Z,63.35
2023-03-29T09:45:56.378Z,63.29
2023-03-29T09:48:23.798Z,62.86
2023-03-29T09:50:55.902Z,63.11
2023-03-29T09:53:22.908Z,63.49
2023-03-29T09:56:12.090Z,64.45
2023-03-29T09:58:47.087Z,62.72
2023-03-29T10:01:17.538Z,62.85
2023-03-29T10:03:52.289Z,62.95
2023-03-29T10:06:23.197Z,63.86
2023-03-29T10:08:58.956Z,62.74
2023-03-29T10:11:43.236Z,62.41
2023-03-29T10:14:19.715Z,62.76
2023-03-29T10:16:47.935Z,62.00
2023-03-29T10:19:21.257Z,61.84
2023-03-29T10:21:52.941Z,61.48
2023-03-29T10:24:24.697Z,62.13
2023-03-29T10:26:56.876Z,61.00
2023-03-29T10:29:25.922Z,61.10
2023-03-29T10:31:52.947Z,60.80
2023-03-29T10:34:25.861Z,60.96
2023-03-29T10:36:59.022Z,60.72
2023-03-29T10:39:29.330Z,60.45
2023-03-29T10:41:56.450Z,60.84
2023-03-29T10:44:41.559Z,61.08
2023-03-29T10:47:20.264Z,61.56
2023-03-29T10:49:54.367Z,62.76
2023-03-29T10:52:22.955Z,60.31
2023-03-29T10:54:51.668Z,62.38
2023-03-29T10:57:47.153Z,60.73
2023-03-29T11:00:38.177Z,60.85
2023-03-29T11:03:15.259Z,62.12
2023-03-29T11:05:51.941Z,60.89
2023-03-29T11:08:28.434Z,60.48
2023-03-29T11:11:11.506Z,60.33
2023-03-29T11:14:09.693Z,60.67
2023-03-29T11:16:39.155Z,60.32
2023-03-29T11:19:18.044Z,60.79
2023-03-29T11:22:03.579Z,60.80
2023-03-29T11:25:10.009Z,60.70
2023-03-29T11:27:54.245Z,61.05
2023-03-29T11:30:39.366Z,60.08
2023-03-29T11:33:17.763Z,58.70
2023-03-29T11:35:53.366Z,57.73
2023-03-29T11:38:33.596Z,55.85
2023-03-29T11:41:26.021Z,55.34
2023-03-29T11:44:05.473Z,54.55
2023-03-29T11:46:50.642Z,55.18
2023-03-29T11:49:25.167Z,57.45
2023-03-29T11:52:20.843Z,57.92
2023-03-29T11:54:58.706Z,57.14
2023-03-29T11:57:37.103Z,56.84
2023-03-29T12:00:27.532Z,56.97
2023-03-29T12:02:56.851Z,57.47
2023-03-29T12:05:27.360Z,58.64
2023-03-29T12:08:25.847Z,56.60
2023-03-29T12:11:11.912Z,55.87
2023-03-29T12:13:44.442Z,56.54
2023-03-29T12:16:17.388Z,57.39
2023-03-29T12:18:48.386Z,54.13
2023-03-29T12:21:20.090Z,53.40
2023-03-29T12:23:48.410Z,53.36
2023-03-29T12:26:40.487Z,54.46
2023-03-29T12:29:21.394Z,52.30
2023-03-29T12:31:54.711Z,52.98
2023-03-29T12:34:44.527Z,52.12
2023-03-29T12:37:52.304Z,52.32
2023-03-29T12:40:57.094Z,51.02
2023-03-29T12:43:52.807Z,50.38
2023-03-29T12:46:26.333Z,49.57
2023-03-29T12:49:05.656Z,51.21
2023-03-29T12:51:34.797Z,49.86
2023-03-29T12:54:19.451Z,50.55
2023-03-29T12:56:52.275Z,50.17
2023-03-29T12:59:38.910Z,50.22
2023-03-29T13:02:14.830Z,51.92
2023-03-29T13:04:52.384Z,50.18
2023-03-29T13:07:22.294Z,50.19
2023-03-29T13:09:56.164Z,49.72
2023-03-29T13:12:27.057Z,51.30
2023-03-29T13:15:00.848Z,51.87
2023-03-29T13:17:52.690Z,49.80
2023-03-29T13:20:46.548Z,51.19
2023-03-29T13:23:17.940Z,52.14
2023-03-29T13:26:36.100Z,54.55
2023-03-29T13:29:34.365Z,51.29
2023-03-29T13:32:29.582Z,52.44
2023-03-29T13:35:20.893Z,52.92
2023-03-29T13:37:58.553Z,54.85
2023-03-29T13:40:31.805Z,52.54
2023-03-29T13:43:21.853Z,51.35
2023-03-29T13:46:18.846Z,55.28
2023-03-29T13:49:05.361Z,53.42
2023-03-29T13:51:37.093Z,55.39
2023-03-29T13:54:09.319Z,54.30
2023-03-29T13:56:52.906Z,55.49
2023-03-29T13:59:25.443Z,53.61
2023-03-29T14:01:57.830Z,53.56
2023-03-29T14:04:27.660Z,53.51
2023-03-29T14:06:56.711Z,53.18
2023-03-29T14:09:30.809Z,53.96
2023-03-29T14:12:00.810Z,53.08
2023-03-29T14:14:32.095Z,54.83
2023-03-29T14:17:00.701Z,54.89
2023-03-29T14:19:32.953Z,54.95
2023-03-29T14:22:07.487Z,53.13
2023-03-29T14:24:39.898Z,55.04
2023-03-29T14:27:10.177Z,56.06
2023-03-29T14:29:37.804Z,56.01
2023-03-29T14:32:18.740Z,55.55
2023-03-29T14:34:50.863Z,56.61
2023-03-29T14:37:28.539Z,56.12
2023-03-29T14:39:56.416Z,55.42
2023-03-29T14:42:28.324Z,55.54
2023-03-29T14:45:04.063Z,56.82
2023-03-29T14:47:32.964Z,56.90
2023-03-29T14:50:01.850Z,56.62
2023-03-29T14:52:30.319Z,56.09
2023-03-29T14:55:00.010Z,57.61
2023-03-29T14:57:32.689Z,57.27
2023-03-29T15:00:02.134Z,57.63
2023-03-29T15:02:31.924Z,56.67
2023-03-29T15:05:18.638Z,57.45
2023-03-29T15:07:45.830Z,58.06
2023-03-29T15:10:18.961Z,56.84
2023-03-29T15:12:46.514Z,57.61
2023-03-29T15:15:13.796Z,56.93
2023-03-29T15:17:50.279Z,57.50
2023-03-29T15:20:18.514Z,57.51
2023-03-29T15:23:07.549Z,58.50
2023-03-29T15:25:38.890Z,60.38
2023-03-29T15:28:06.192Z,63.31
2023-03-29T15:30:39.516Z,63.52
2023-03-29T15:33:20.404Z,62.50
2023-03-29T15:35:51.900Z,64.47
2023-03-29T15:38:23.382Z,64.64
2023-03-29T15:40:54.485Z,64.09
2023-03-29T15:43:21.586Z,63.26
2023-03-29T15:45:48.290Z,62.11
2023-03-29T15:48:17.989Z,62.04
2023-03-29T15:50:45.253Z,63.13
2023-03-29T15:53:15.766Z,63.66
2023-03-29T15:55:46.397Z,63.43
2023-03-29T15:58:18.966Z,63.03
2023-03-29T16:00:51.989Z,63.07
2023-03-29T16:03:19.523Z,63.10
2023-03-29T16:05:46.602Z,63.82
2023-03-29T16:08:13.698Z,62.81
2023-03-29T16:10:42.911Z,62.89
2023-03-29T16:13:13.988Z,63.30
2023-03-29T16:15:41.852Z,63.13
2023-03-29T16:18:08.839Z,62.82
2023-03-29T16:20:35.511Z,63.49
2023-03-29T16:23:09.951Z,63.70
2023-03-29T16:25:38.491Z,63.14
2023-03-29T16:28:06.036Z,62.76
2023-03-29T16:30:35.685Z,62.73
2023-03-29T16:33:06.274Z,62.76
2023-03-29T16:35:37.221Z,62.70
2023-03-29T16:38:04.283Z,63.08
2023-03-29T16:40:33.158Z,62.40
2023-03-29T16:43:00.051Z,62.79
2023-03-29T16:45:27.229Z,63.21
2023-03-29T16:47:54.477Z,63.71
2023-03-29T16:50:21.939Z,64.10
2023-03-29T16:52:51.363Z,64.11
2023-03-29T16:55:19.209Z,63.07
2023-03-29T16:57:47.288Z,64.35
2023-03-29T17:00:16.438Z,64.05
2023-03-29T17:02:43.998Z,64.86
2023-03-29T17:05:12.649Z,64.50
2023-03-29T17:07:40.161Z,64.60
2023-03-29T17:10:08.230Z,63.65
2023-03-29T17:12:35.681Z,64.02
2023-03-29T17:15:03.491Z,63.91
2023-03-29T17:17:30.047Z,63.94
2023-03-29T17:19:56.689Z,64.01
2023-03-29T17:22:24.251Z,64.19
2023-03-29T17:24:50.795Z,64.00
2023-03-29T17:27:17.752Z,64.55
2023-03-29T17:29:44.340Z,64.74
2023-03-29T17:32:11.063Z,64.59
2023-03-29T17:34:38.884Z,64.97
2023-03-29T17:37:05.579Z,65.17
2023-03-29T17:39:37.293Z,65.42
2023-03-29T17:42:04.378Z,66.69
2023-03-29T17:44:33.159Z,66.86
2023-03-29T17:47:01.052Z,67.42
2023-03-29T17:49:28.939Z,66.81
2023-03-29T17:51:55.732Z,66.91
2023-03-29T17:54:22.269Z,66.52
2023-03-29T17:56:50.376Z,66.91
2023-03-29T17:59:17.721Z,66.76
2023-03-29T18:01:44.494Z,66.70
2023-03-29T18:04:11.359Z,66.55
2023-03-29T18:06:38.736Z,66.93
2023-03-29T18:09:05.947Z,66.53
2023-03-29T18:11:32.681Z,66.82
2023-03-29T18:14:00.844Z,66.55
2023-03-29T18:16:27.913Z,66.85
2023-03-29T18:18:54.606Z,66.65
2023-03-29T18:21:21.969Z,66.76
2023-03-29T18:23:49.866Z,67.13
2023-03-29T18:26:17.310Z,66.98
2023-03-29T18:28:46.988Z,67.03
2023-03-29T18:31:14.829Z,67.46
2023-03-29T18:33:41.578Z,67.50
2023-03-29T18:36:11.917Z,67.56
2023-03-29T18:38:40.725Z,67.81
2023-03-29T18:41:08.610Z,67.63
2023-03-29T18:43:35.944Z,68.91
2023-03-29T18:46:02.819Z,68.46
2023-03-29T18:48:29.784Z,68.71
2023-03-29T18:50:57.133Z,68.50
2023-03-29T18:53:24.657Z,68.96
2023-03-29T18:55:51.239Z,69.25
2023-03-29T18:58:20.377Z,69.07
2023-03-29T19:00:47.030Z,68.71
2023-03-29T19:03:13.640Z,69.02
2023-03-29T19:05:41.042Z,68.58
2023-03-29T19:08:08.444Z,69.34
2023-03-29T19:10:36.667Z,69.21
2023-03-29T19:13:04.389Z,69.62
2023-03-29T19:15:32.429Z,69.94
2023-03-29T19:17:59.140Z,70.10
2023-03-29T19:20:25.848Z,69.08
2023-03-29T19:22:53.923Z,69.74
2023-03-29T19:25:20.612Z,69.09
2023-03-29T19:27:47.763Z,69.43
2023-03-29T19:30:15.129Z,69.10
2023-03-29T19:32:42.044Z,68.67
2023-03-29T19:35:09.609Z,68.69
2023-03-29T19:37:36.526Z,69.30
2023-03-29T19:40:06.427Z,68.66
2023-03-29T19:42:36.088Z,68.90
2023-03-29T19:45:03.956Z,68.85
2023-03-29T19:47:30.632Z,68.83
2023-03-29T19:50:01.337Z,68.46
2023-03-29T19:52:29.928Z,68.55
2023-03-29T19:54:57.031Z,68.62
2023-03-29T19:57:23.914Z,68.71
2023-03-29T19:59:53.120Z,69.24
2023-03-29T20:02:19.729Z,69.22
2023-03-29T20:04:46.320Z,69.48
2023-03-29T20:07:13.019Z,69.12
2023-03-29T20:09:39.962Z,69.34
2023-03-29T20:12:06.673Z,69.63
2023-03-29T20:14:34.248Z,69.21
2023-03-29T20:17:00.948Z,69.06
2023-03-29T20:19:27.799Z,68.46
2023-03-29T20:21:58.114Z,68.34
2023-03-29T20:24:25.161Z,68.45
2023-03-29T20:26:52.308Z,67.91
2023-03-29T20:29:19.001Z,67.82
2023-03-29T20:31:46.108Z,68.01
2023-03-29T20:34:12.948Z,67.80
2023-03-29T20:36:40.476Z,67.47
2023-03-29T20:39:08.220Z,67.16
2023-03-29T20:41:38.300Z,67.27
2023-03-29T20:44:05.755Z,66.70
2023-03-29T20:46:35.736Z,67.10
2023-03-29T20:49:04.635Z,66.57
2023-03-29T20:51:32.182Z,66.55
2023-03-29T20:54:04.614Z,66.75
2023-03-29T20:56:42.090Z,67.33
2023-03-29T20:59:10.732Z,67.13
2023-03-29T21:01:40.588Z,67.33
2023-03-29T21:04:08.386Z,66.91
2023-03-29T21:06:36.069Z,67.28
2023-03-29T21:09:03.413Z,67.77
2023-03-29T21:11:30.041Z,67.22
2023-03-29T21:13:56.608Z,66.94
2023-03-29T21:16:25.129Z,66.79
2023-03-29T21:18:51.940Z,67.84
2023-03-29T21:21:18.599Z,67.02
2023-03-29T21:23:45.267Z,67.26
2023-03-29T21:26:11.860Z,67.43
2023-03-29T21:28:38.589Z,67.70
2023-03-29T21:31:06.548Z,67.20
2023-03-29T21:33:34.097Z,68.68
2023-03-29T21:36:00.914Z,69.22
2023-03-29T21:38:28.330Z,69.94
2023-03-29T21:40:55.026Z,71.56
2023-03-29T21:43:21.632Z,71.30
2023-03-29T21:45:49.590Z,71.45
2023-03-29T21:48:17.055Z,73.47
2023-03-29T21:50:44.712Z,73.47
2023-03-29T21:53:11.669Z,73.23
2023-03-29T21:55:38.273Z,72.93
2023-03-29T21:58:05.142Z,72.76
2023-03-29T22:00:32.196Z,72.75
2023-03-29T22:02:58.892Z,73.84
2023-03-29T22:05:28.345Z,73.39
2023-03-29T22:07:58.597Z,72.83
2023-03-29T22:10:25.854Z,73.42
2023-03-29T22:12:53.244Z,73.51
2023-03-29T22:15:20.662Z,73.90
2023-03-29T22:17:47.913Z,73.26
2023-03-29T22:20:15.346Z,73.20
2023-03-29T22:22:49.631Z,72.37
2023-03-29T22:25:17.665Z,73.54
2023-03-29T22:27:45.869Z,73.47
2023-03-29T22:30:13.641Z,71.94
2023-03-29T22:32:41.144Z,71.40
2023-03-29T22:35:08.912Z,71.24
2023-03-29T22:37:43.435Z,70.98
2023-03-29T22:40:11.392Z,70.87
2023-03-29T22:42:39.109Z,70.82
2023-03-29T22:45:06.596Z,70.96
2023-03-29T22:47:34.066Z,70.42
2023-03-29T22:50:01.075Z,70.47
2023-03-29T22:52:27.655Z,70.54
2023-03-29T22:54:54.236Z,70.10
2023-03-29T22:57:20.883Z,70.33
2023-03-29T22:59:47.581Z,70.45
2023-03-29T23:02:14.384Z,70.29
2023-03-29T23:04:42.213Z,70.54
2023-03-29T23:07:09.167Z,70.13
2023-03-29T23:09:35.876Z,70.63
2023-03-29T23:12:02.510Z,69.95
2023-03-29T23:14:29.806Z,70.14
2023-03-29T23:16:56.523Z,69.68
2023-03-29T23:19:23.400Z,70.03
2023-03-29T23:21:50.049Z,70.61
2023-03-29T23:24:19.074Z,70.61
2023-03-29T23:26:49.008Z,70.06
2023-03-29T23:29:15.655Z,70.17
2023-03-29T23:31:42.462Z,70.46
2023-03-29T23:34:09.204Z,70.99
2023-03-29T23:36:35.792Z,70.84
2023-03-29T23:39:02.553Z,70.83
2023-03-29T23:41:30.591Z,71.24
2023-03-29T23:43:58.751Z,71.20
2023-03-29T23:46:26.008Z,71.60
2023-03-29T23:48:52.727Z,72.64
2023-03-29T23:51:22.887Z,72.91
2023-03-29T23:53:50.591Z,73.16
2023-03-29T23:56:17.232Z,73.28
2023-03-29T23:58:44.479Z,72.50
